Terminal Aerodrome Forecast
Issued by NWS

Home | Current Version | Previous Version | Text Only | Print | Product List | Glossary On
Versions: 1 2 3 4 5 6 7 8 9 10 11 12 13 14 15 16 17 18 19 20 21 22 23 24
000
FTUS42 KFFC 281741
TAFFTY
TAF
KFTY 281741Z 2818/2918 11006KT P6SM VCSH BKN020 BKN050
      TEMPO 2818/2822 VRB15KT 3SM TSRA BKN015CB
     FM282200 14006KT P6SM SCT040 BKN080
     FM290600 VRB03KT P6SM SCT015 BKN045
     FM291400 15007KT P6SM BKN030=

USA.gov is the U.S. government's official web portal to all federal, state and local government web resources and services.